sensor_id;sensor_type;location;lat;lon;timestamp;P1;durP1;ratioP1;P2;durP2;ratioP2
59828;SDS011;45708;51.848;107.620;2023-04-08T00:02:46;85.88;;;35.97;;
59828;SDS011;45708;51.848;107.620;2023-04-08T00:07:46;99.53;;;39.58;;
59828;SDS011;45708;51.848;107.620;2023-04-08T00:12:47;90.20;;;39.70;;
59828;SDS011;45708;51.848;107.620;2023-04-08T00:17:48;73.78;;;32.97;;
59828;SDS011;45708;51.848;107.620;2023-04-08T00:22:49;56.90;;;27.77;;
59828;SDS011;45708;51.848;107.620;2023-04-08T00:27:50;61.38;;;23.98;;
59828;SDS011;45708;51.848;107.620;2023-04-08T00:32:51;34.63;;;18.48;;
59828;SDS011;45708;51.848;107.620;2023-04-08T00:37:52;32.72;;;15.52;;
59828;SDS011;45708;51.848;107.620;2023-04-08T00:42:52;27.60;;;13.52;;
59828;SDS011;45708;51.848;107.620;2023-04-08T00:47:53;17.65;;;9.52;;
59828;SDS011;45708;51.848;107.620;2023-04-08T00:52:55;23.30;;;11.75;;
59828;SDS011;45708;51.848;107.620;2023-04-08T00:57:56;28.83;;;14.13;;
59828;SDS011;45708;51.848;107.620;2023-04-08T01:08:09;35.53;;;16.92;;
59828;SDS011;45708;51.848;107.620;2023-04-08T01:13:11;32.42;;;13.35;;
59828;SDS011;45708;51.848;107.620;2023-04-08T01:18:16;33.65;;;13.95;;
59828;SDS011;45708;51.848;107.620;2023-04-08T01:28:43;27.58;;;11.63;;
59828;SDS011;45708;51.848;107.620;2023-04-08T01:33:45;25.77;;;11.80;;
59828;SDS011;45708;51.848;107.620;2023-04-08T01:38:47;31.52;;;12.55;;
59828;SDS011;45708;51.848;107.620;2023-04-08T01:43:49;27.25;;;12.70;;
59828;SDS011;45708;51.848;107.620;2023-04-08T01:48:51;26.95;;;10.25;;
59828;SDS011;45708;51.848;107.620;2023-04-08T01:53:54;18.90;;;7.30;;
59828;SDS011;45708;51.848;107.620;2023-04-08T01:59:01;17.52;;;5.80;;
59828;SDS011;45708;51.848;107.620;2023-04-08T02:04:09;10.10;;;4.55;;
59828;SDS011;45708;51.848;107.620;2023-04-08T02:09:10;8.50;;;3.72;;
59828;SDS011;45708;51.848;107.620;2023-04-08T02:14:10;5.68;;;2.63;;
59828;SDS011;45708;51.848;107.620;2023-04-08T02:19:13;18.38;;;5.30;;
59828;SDS011;45708;51.848;107.620;2023-04-08T02:24:19;7.50;;;3.40;;
59828;SDS011;45708;51.848;107.620;2023-04-08T02:29:21;11.70;;;4.35;;
59828;SDS011;45708;51.848;107.620;2023-04-08T02:34:25;5.32;;;3.50;;
59828;SDS011;45708;51.848;107.620;2023-04-08T02:39:30;12.57;;;4.25;;
59828;SDS011;45708;51.848;107.620;2023-04-08T02:44:32;10.27;;;4.32;;
59828;SDS011;45708;51.848;107.620;2023-04-08T02:49:33;7.80;;;4.25;;
59828;SDS011;45708;51.848;107.620;2023-04-08T02:54:34;8.15;;;3.60;;
59828;SDS011;45708;51.848;107.620;2023-04-08T02:59:34;9.23;;;2.50;;
59828;SDS011;45708;51.848;107.620;2023-04-08T03:04:35;11.30;;;4.40;;
59828;SDS011;45708;51.848;107.620;2023-04-08T03:09:36;13.70;;;4.80;;
59828;SDS011;45708;51.848;107.620;2023-04-08T03:14:37;22.80;;;6.75;;
59828;SDS011;45708;51.848;107.620;2023-04-08T03:19:38;13.20;;;5.50;;
59828;SDS011;45708;51.848;107.620;2023-04-08T03:24:39;12.77;;;5.82;;
59828;SDS011;45708;51.848;107.620;2023-04-08T03:29:40;11.85;;;5.38;;
59828;SDS011;45708;51.848;107.620;2023-04-08T03:34:40;13.52;;;6.78;;
59828;SDS011;45708;51.848;107.620;2023-04-08T03:39:41;25.42;;;8.93;;
59828;SDS011;45708;51.848;107.620;2023-04-08T03:44:42;22.13;;;7.60;;
59828;SDS011;45708;51.848;107.620;2023-04-08T03:49:43;25.35;;;11.35;;
59828;SDS011;45708;51.848;107.620;2023-04-08T03:54:44;18.30;;;7.65;;
59828;SDS011;45708;51.848;107.620;2023-04-08T03:59:44;11.82;;;6.22;;
59828;SDS011;45708;51.848;107.620;2023-04-08T04:04:45;12.60;;;6.13;;
59828;SDS011;45708;51.848;107.620;2023-04-08T04:09:46;23.80;;;8.25;;
59828;SDS011;45708;51.848;107.620;2023-04-08T04:14:47;19.55;;;7.72;;
59828;SDS011;45708;51.848;107.620;2023-04-08T04:19:48;16.50;;;7.18;;
59828;SDS011;45708;51.848;107.620;2023-04-08T04:24:49;11.02;;;6.05;;
59828;SDS011;45708;51.848;107.620;2023-04-08T04:29:49;15.98;;;8.32;;
59828;SDS011;45708;51.848;107.620;2023-04-08T04:34:50;18.60;;;8.38;;
59828;SDS011;45708;51.848;107.620;2023-04-08T04:39:51;21.48;;;9.57;;
59828;SDS011;45708;51.848;107.620;2023-04-08T04:44:53;22.58;;;10.07;;
59828;SDS011;45708;51.848;107.620;2023-04-08T04:49:54;22.27;;;8.38;;
59828;SDS011;45708;51.848;107.620;2023-04-08T04:54:56;22.83;;;10.65;;
59828;SDS011;45708;51.848;107.620;2023-04-08T04:59:57;29.77;;;10.38;;
59828;SDS011;45708;51.848;107.620;2023-04-08T05:04:58;17.65;;;8.85;;
59828;SDS011;45708;51.848;107.620;2023-04-08T05:09:58;9.30;;;3.92;;
59828;SDS011;45708;51.848;107.620;2023-04-08T05:14:59;26.35;;;10.55;;
59828;SDS011;45708;51.848;107.620;2023-04-08T05:20:00;12.45;;;5.70;;
59828;SDS011;45708;51.848;107.620;2023-04-08T05:25:01;16.15;;;4.05;;
59828;SDS011;45708;51.848;107.620;2023-04-08T05:30:02;3.42;;;1.90;;
59828;SDS011;45708;51.848;107.620;2023-04-08T05:35:04;7.32;;;2.65;;
59828;SDS011;45708;51.848;107.620;2023-04-08T05:40:05;11.40;;;3.78;;
59828;SDS011;45708;51.848;107.620;2023-04-08T05:45:06;16.02;;;3.25;;
59828;SDS011;45708;51.848;107.620;2023-04-08T05:50:07;8.10;;;2.85;;
59828;SDS011;45708;51.848;107.620;2023-04-08T05:55:09;7.68;;;2.30;;
59828;SDS011;45708;51.848;107.620;2023-04-08T06:00:10;6.15;;;2.67;;
59828;SDS011;45708;51.848;107.620;2023-04-08T06:05:11;22.25;;;5.30;;
59828;SDS011;45708;51.848;107.620;2023-04-08T06:10:12;21.08;;;4.35;;
59828;SDS011;45708;51.848;107.620;2023-04-08T06:15:13;10.00;;;3.33;;
59828;SDS011;45708;51.848;107.620;2023-04-08T06:20:14;44.38;;;8.77;;
59828;SDS011;45708;51.848;107.620;2023-04-08T06:25:15;21.60;;;3.65;;
59828;SDS011;45708;51.848;107.620;2023-04-08T06:30:16;9.20;;;3.25;;
59828;SDS011;45708;51.848;107.620;2023-04-08T06:35:16;30.40;;;5.07;;
59828;SDS011;45708;51.848;107.620;2023-04-08T06:51:34;4.72;;;2.40;;
59828;SDS011;45708;51.848;107.620;2023-04-08T06:57:12;16.75;;;3.90;;
59828;SDS011;45708;51.848;107.620;2023-04-08T07:02:31;11.77;;;3.17;;
59828;SDS011;45708;51.848;107.620;2023-04-08T07:07:51;8.48;;;3.45;;
59828;SDS011;45708;51.848;107.620;2023-04-08T07:13:10;19.48;;;3.50;;
59828;SDS011;45708;51.848;107.620;2023-04-08T07:35:04;20.23;;;4.88;;
59828;SDS011;45708;51.848;107.620;2023-04-08T07:40:23;9.23;;;2.97;;
59828;SDS011;45708;51.848;107.620;2023-04-08T07:46:02;9.82;;;2.15;;
59828;SDS011;45708;51.848;107.620;2023-04-08T08:07:39;5.63;;;2.33;;
59828;SDS011;45708;51.848;107.620;2023-04-08T08:13:17;6.65;;;1.98;;
59828;SDS011;45708;51.848;107.620;2023-04-08T08:18:55;7.13;;;2.50;;
59828;SDS011;45708;51.848;107.620;2023-04-08T08:23:57;14.98;;;4.35;;
59828;SDS011;45708;51.848;107.620;2023-04-08T08:28:58;5.93;;;2.78;;
59828;SDS011;45708;51.848;107.620;2023-04-08T08:33:59;5.40;;;2.42;;
59828;SDS011;45708;51.848;107.620;2023-04-08T08:39:00;3.45;;;2.08;;
59828;SDS011;45708;51.848;107.620;2023-04-08T08:44:01;5.15;;;2.35;;
59828;SDS011;45708;51.848;107.620;2023-04-08T08:49:02;3.80;;;2.05;;
59828;SDS011;45708;51.848;107.620;2023-04-08T08:54:03;6.47;;;3.80;;
59828;SDS011;45708;51.848;107.620;2023-04-08T09:04:10;8.07;;;4.25;;
59828;SDS011;45708;51.848;107.620;2023-04-08T09:09:12;7.63;;;3.80;;
59828;SDS011;45708;51.848;107.620;2023-04-08T09:14:21;12.90;;;5.25;;
59828;SDS011;45708;51.848;107.620;2023-04-08T09:24:29;10.65;;;3.47;;
59828;SDS011;45708;51.848;107.620;2023-04-08T09:29:30;11.18;;;4.40;;
59828;SDS011;45708;51.848;107.620;2023-04-08T09:34:31;10.98;;;7.15;;
59828;SDS011;45708;51.848;107.620;2023-04-08T09:39:32;3.90;;;2.88;;
59828;SDS011;45708;51.848;107.620;2023-04-08T09:44:33;6.00;;;3.30;;
59828;SDS011;45708;51.848;107.620;2023-04-08T09:49:42;5.13;;;3.38;;
59828;SDS011;45708;51.848;107.620;2023-04-08T09:59:59;14.10;;;6.65;;
59828;SDS011;45708;51.848;107.620;2023-04-08T10:05:07;12.95;;;6.65;;
59828;SDS011;45708;51.848;107.620;2023-04-08T10:10:14;11.13;;;6.50;;
59828;SDS011;45708;51.848;107.620;2023-04-08T10:15:28;10.25;;;5.97;;
59828;SDS011;45708;51.848;107.620;2023-04-08T10:25:39;10.15;;;4.32;;
59828;SDS011;45708;51.848;107.620;2023-04-08T10:35:48;8.32;;;5.35;;
59828;SDS011;45708;51.848;107.620;2023-04-08T10:40:59;13.23;;;5.90;;
59828;SDS011;45708;51.848;107.620;2023-04-08T10:46:00;6.25;;;3.55;;
59828;SDS011;45708;51.848;107.620;2023-04-08T10:51:01;12.45;;;5.10;;
59828;SDS011;45708;51.848;107.620;2023-04-08T10:56:07;17.10;;;6.82;;
59828;SDS011;45708;51.848;107.620;2023-04-08T11:01:13;12.85;;;6.20;;
59828;SDS011;45708;51.848;107.620;2023-04-08T11:06:14;13.35;;;5.70;;
59828;SDS011;45708;51.848;107.620;2023-04-08T11:11:17;10.63;;;5.43;;
59828;SDS011;45708;51.848;107.620;2023-04-08T11:16:22;5.20;;;3.88;;
59828;SDS011;45708;51.848;107.620;2023-04-08T11:21:23;9.10;;;3.90;;
59828;SDS011;45708;51.848;107.620;2023-04-08T11:26:25;11.35;;;6.43;;
59828;SDS011;45708;51.848;107.620;2023-04-08T11:31:26;19.05;;;7.97;;
59828;SDS011;45708;51.848;107.620;2023-04-08T11:36:28;14.98;;;6.53;;
59828;SDS011;45708;51.848;107.620;2023-04-08T11:41:37;15.55;;;6.90;;
59828;SDS011;45708;51.848;107.620;2023-04-08T11:47:06;18.97;;;7.97;;
59828;SDS011;45708;51.848;107.620;2023-04-08T11:52:07;14.15;;;7.50;;
59828;SDS011;45708;51.848;107.620;2023-04-08T11:57:08;30.23;;;13.88;;
59828;SDS011;45708;51.848;107.620;2023-04-08T12:02:09;15.00;;;7.20;;
59828;SDS011;45708;51.848;107.620;2023-04-08T12:07:12;27.00;;;10.75;;
59828;SDS011;45708;51.848;107.620;2023-04-08T12:12:14;30.02;;;10.90;;
59828;SDS011;45708;51.848;107.620;2023-04-08T12:17:15;34.85;;;13.65;;
59828;SDS011;45708;51.848;107.620;2023-04-08T12:22:16;23.35;;;11.18;;
59828;SDS011;45708;51.848;107.620;2023-04-08T12:27:16;28.15;;;12.82;;
59828;SDS011;45708;51.848;107.620;2023-04-08T12:32:18;28.73;;;9.15;;
59828;SDS011;45708;51.848;107.620;2023-04-08T12:37:18;16.75;;;8.38;;
59828;SDS011;45708;51.848;107.620;2023-04-08T12:42:19;19.90;;;8.27;;
59828;SDS011;45708;51.848;107.620;2023-04-08T12:47:20;6.75;;;3.13;;
59828;SDS011;45708;51.848;107.620;2023-04-08T12:52:21;3.05;;;1.80;;
59828;SDS011;45708;51.848;107.620;2023-04-08T12:57:22;10.27;;;4.53;;
59828;SDS011;45708;51.848;107.620;2023-04-08T13:02:23;8.40;;;3.88;;
59828;SDS011;45708;51.848;107.620;2023-04-08T13:07:23;9.40;;;5.30;;
59828;SDS011;45708;51.848;107.620;2023-04-08T13:12:24;11.38;;;4.30;;
59828;SDS011;45708;51.848;107.620;2023-04-08T13:17:25;11.48;;;5.20;;
59828;SDS011;45708;51.848;107.620;2023-04-08T13:22:26;9.02;;;4.03;;
59828;SDS011;45708;51.848;107.620;2023-04-08T13:27:27;7.18;;;3.55;;
59828;SDS011;45708;51.848;107.620;2023-04-08T13:32:28;4.60;;;3.72;;
59828;SDS011;45708;51.848;107.620;2023-04-08T13:37:29;10.60;;;5.88;;
59828;SDS011;45708;51.848;107.620;2023-04-08T13:42:30;7.75;;;5.57;;
59828;SDS011;45708;51.848;107.620;2023-04-08T13:47:31;9.90;;;5.32;;
59828;SDS011;45708;51.848;107.620;2023-04-08T13:52:32;10.75;;;5.55;;
59828;SDS011;45708;51.848;107.620;2023-04-08T13:57:33;15.00;;;7.28;;
59828;SDS011;45708;51.848;107.620;2023-04-08T14:02:33;12.27;;;4.97;;
59828;SDS011;45708;51.848;107.620;2023-04-08T14:07:34;9.35;;;4.43;;
59828;SDS011;45708;51.848;107.620;2023-04-08T14:12:35;3.10;;;2.03;;
59828;SDS011;45708;51.848;107.620;2023-04-08T14:17:36;12.95;;;4.90;;
59828;SDS011;45708;51.848;107.620;2023-04-08T14:22:37;9.32;;;5.15;;
59828;SDS011;45708;51.848;107.620;2023-04-08T14:27:38;11.00;;;4.82;;
59828;SDS011;45708;51.848;107.620;2023-04-08T14:32:38;14.80;;;6.05;;
59828;SDS011;45708;51.848;107.620;2023-04-08T14:37:40;16.50;;;6.85;;
59828;SDS011;45708;51.848;107.620;2023-04-08T14:42:41;14.13;;;7.30;;
59828;SDS011;45708;51.848;107.620;2023-04-08T14:47:42;12.63;;;6.00;;
59828;SDS011;45708;51.848;107.620;2023-04-08T14:52:43;14.57;;;6.38;;
59828;SDS011;45708;51.848;107.620;2023-04-08T14:57:44;6.00;;;2.15;;
59828;SDS011;45708;51.848;107.620;2023-04-08T15:02:44;6.30;;;2.45;;
59828;SDS011;45708;51.848;107.620;2023-04-08T15:07:46;5.50;;;2.53;;
59828;SDS011;45708;51.848;107.620;2023-04-08T15:12:47;10.52;;;4.85;;
59828;SDS011;45708;51.848;107.620;2023-04-08T15:17:48;16.80;;;4.60;;
59828;SDS011;45708;51.848;107.620;2023-04-08T15:22:49;15.02;;;5.43;;
59828;SDS011;45708;51.848;107.620;2023-04-08T15:27:50;7.60;;;3.90;;
59828;SDS011;45708;51.848;107.620;2023-04-08T15:32:51;3.45;;;2.05;;
59828;SDS011;45708;51.848;107.620;2023-04-08T15:37:52;14.23;;;5.20;;
59828;SDS011;45708;51.848;107.620;2023-04-08T15:42:52;23.98;;;9.52;;
59828;SDS011;45708;51.848;107.620;2023-04-08T15:47:53;4.13;;;2.15;;
59828;SDS011;45708;51.848;107.620;2023-04-08T15:52:54;7.63;;;3.80;;
59828;SDS011;45708;51.848;107.620;2023-04-08T15:57:55;12.18;;;4.88;;
59828;SDS011;45708;51.848;107.620;2023-04-08T16:02:55;6.30;;;3.13;;
59828;SDS011;45708;51.848;107.620;2023-04-08T16:07:56;4.65;;;1.98;;
59828;SDS011;45708;51.848;107.620;2023-04-08T16:12:57;11.70;;;4.70;;
59828;SDS011;45708;51.848;107.620;2023-04-08T16:17:58;17.70;;;6.18;;
59828;SDS011;45708;51.848;107.620;2023-04-08T16:22:59;12.90;;;5.32;;
59828;SDS011;45708;51.848;107.620;2023-04-08T16:28:00;6.10;;;4.28;;
59828;SDS011;45708;51.848;107.620;2023-04-08T16:33:00;19.27;;;7.72;;
59828;SDS011;45708;51.848;107.620;2023-04-08T16:38:01;20.77;;;7.75;;
59828;SDS011;45708;51.848;107.620;2023-04-08T16:43:02;27.50;;;8.43;;
59828;SDS011;45708;51.848;107.620;2023-04-08T16:48:03;26.80;;;9.98;;
59828;SDS011;45708;51.848;107.620;2023-04-08T16:53:04;21.77;;;8.88;;
59828;SDS011;45708;51.848;107.620;2023-04-08T16:58:05;10.82;;;5.25;;
59828;SDS011;45708;51.848;107.620;2023-04-08T17:03:06;11.93;;;5.18;;
59828;SDS011;45708;51.848;107.620;2023-04-08T17:08:07;9.68;;;4.47;;
59828;SDS011;45708;51.848;107.620;2023-04-08T17:13:08;24.40;;;10.07;;
59828;SDS011;45708;51.848;107.620;2023-04-08T17:18:08;19.80;;;8.43;;
59828;SDS011;45708;51.848;107.620;2023-04-08T17:23:09;23.58;;;10.30;;
59828;SDS011;45708;51.848;107.620;2023-04-08T17:28:10;32.25;;;12.60;;
59828;SDS011;45708;51.848;107.620;2023-04-08T17:33:11;44.60;;;17.00;;
59828;SDS011;45708;51.848;107.620;2023-04-08T17:38:12;38.60;;;17.17;;
59828;SDS011;45708;51.848;107.620;2023-04-08T17:43:12;40.55;;;12.68;;
59828;SDS011;45708;51.848;107.620;2023-04-08T17:48:13;30.83;;;12.68;;
59828;SDS011;45708;51.848;107.620;2023-04-08T17:53:14;34.75;;;11.82;;
59828;SDS011;45708;51.848;107.620;2023-04-08T17:58:15;37.15;;;13.45;;
59828;SDS011;45708;51.848;107.620;2023-04-08T18:03:16;13.10;;;4.82;;
59828;SDS011;45708;51.848;107.620;2023-04-08T18:08:17;14.52;;;4.93;;
59828;SDS011;45708;51.848;107.620;2023-04-08T18:13:18;20.05;;;7.13;;
59828;SDS011;45708;51.848;107.620;2023-04-08T18:18:18;18.17;;;5.75;;
59828;SDS011;45708;51.848;107.620;2023-04-08T18:23:19;15.43;;;5.10;;
59828;SDS011;45708;51.848;107.620;2023-04-08T18:28:20;17.35;;;7.15;;
59828;SDS011;45708;51.848;107.620;2023-04-08T18:33:21;25.33;;;8.02;;
59828;SDS011;45708;51.848;107.620;2023-04-08T18:38:22;15.55;;;7.22;;
59828;SDS011;45708;51.848;107.620;2023-04-08T18:43:22;18.00;;;7.78;;
59828;SDS011;45708;51.848;107.620;2023-04-08T18:48:23;33.08;;;13.20;;
59828;SDS011;45708;51.848;107.620;2023-04-08T18:53:24;32.40;;;13.65;;
59828;SDS011;45708;51.848;107.620;2023-04-08T18:58:25;27.67;;;11.43;;
59828;SDS011;45708;51.848;107.620;2023-04-08T19:03:26;26.92;;;12.40;;
59828;SDS011;45708;51.848;107.620;2023-04-08T19:08:27;28.07;;;11.33;;
59828;SDS011;45708;51.848;107.620;2023-04-08T19:13:28;24.97;;;11.00;;
59828;SDS011;45708;51.848;107.620;2023-04-08T19:18:30;20.42;;;9.25;;
59828;SDS011;45708;51.848;107.620;2023-04-08T19:23:30;17.65;;;9.35;;
59828;SDS011;45708;51.848;107.620;2023-04-08T19:28:31;19.20;;;8.57;;
59828;SDS011;45708;51.848;107.620;2023-04-08T19:33:32;18.80;;;8.23;;
59828;SDS011;45708;51.848;107.620;2023-04-08T19:38:33;23.58;;;9.93;;
59828;SDS011;45708;51.848;107.620;2023-04-08T19:43:34;15.38;;;8.50;;
59828;SDS011;45708;51.848;107.620;2023-04-08T19:48:35;19.55;;;8.07;;
59828;SDS011;45708;51.848;107.620;2023-04-08T19:53:36;27.00;;;8.38;;
59828;SDS011;45708;51.848;107.620;2023-04-08T19:58:36;16.73;;;7.43;;
59828;SDS011;45708;51.848;107.620;2023-04-08T20:03:37;23.20;;;8.48;;
59828;SDS011;45708;51.848;107.620;2023-04-08T20:08:38;29.35;;;11.05;;
59828;SDS011;45708;51.848;107.620;2023-04-08T20:13:39;28.83;;;10.82;;
59828;SDS011;45708;51.848;107.620;2023-04-08T20:18:40;25.15;;;12.13;;
59828;SDS011;45708;51.848;107.620;2023-04-08T20:23:41;19.48;;;8.35;;
59828;SDS011;45708;51.848;107.620;2023-04-08T20:28:42;23.67;;;9.15;;
59828;SDS011;45708;51.848;107.620;2023-04-08T20:33:43;24.52;;;10.35;;
59828;SDS011;45708;51.848;107.620;2023-04-08T20:38:44;32.83;;;14.25;;
59828;SDS011;45708;51.848;107.620;2023-04-08T20:43:44;30.05;;;11.60;;
59828;SDS011;45708;51.848;107.620;2023-04-08T20:48:45;23.17;;;9.55;;
59828;SDS011;45708;51.848;107.620;2023-04-08T20:53:46;19.38;;;7.65;;
59828;SDS011;45708;51.848;107.620;2023-04-08T20:58:47;13.45;;;6.70;;
59828;SDS011;45708;51.848;107.620;2023-04-08T21:03:48;15.20;;;6.70;;
59828;SDS011;45708;51.848;107.620;2023-04-08T21:08:49;20.52;;;8.70;;
59828;SDS011;45708;51.848;107.620;2023-04-08T21:13:50;19.95;;;10.27;;
59828;SDS011;45708;51.848;107.620;2023-04-08T21:18:50;25.73;;;11.18;;
59828;SDS011;45708;51.848;107.620;2023-04-08T21:23:51;14.40;;;6.72;;
59828;SDS011;45708;51.848;107.620;2023-04-08T21:28:53;16.77;;;7.33;;
59828;SDS011;45708;51.848;107.620;2023-04-08T21:33:53;12.27;;;5.67;;
59828;SDS011;45708;51.848;107.620;2023-04-08T21:38:54;12.00;;;5.13;;
59828;SDS011;45708;51.848;107.620;2023-04-08T21:43:55;9.50;;;3.90;;
59828;SDS011;45708;51.848;107.620;2023-04-08T21:48:56;10.17;;;5.63;;
59828;SDS011;45708;51.848;107.620;2023-04-08T21:53:57;13.93;;;6.67;;
59828;SDS011;45708;51.848;107.620;2023-04-08T21:58:57;24.23;;;11.20;;
59828;SDS011;45708;51.848;107.620;2023-04-08T22:03:58;27.70;;;11.57;;
59828;SDS011;45708;51.848;107.620;2023-04-08T22:08:59;24.98;;;11.00;;
59828;SDS011;45708;51.848;107.620;2023-04-08T22:14:00;30.20;;;14.70;;
59828;SDS011;45708;51.848;107.620;2023-04-08T22:19:00;31.30;;;12.50;;
59828;SDS011;45708;51.848;107.620;2023-04-08T22:24:01;34.22;;;15.77;;
59828;SDS011;45708;51.848;107.620;2023-04-08T22:29:02;35.03;;;15.15;;
59828;SDS011;45708;51.848;107.620;2023-04-08T22:34:03;45.90;;;18.13;;
59828;SDS011;45708;51.848;107.620;2023-04-08T22:39:04;43.35;;;17.17;;
59828;SDS011;45708;51.848;107.620;2023-04-08T22:44:07;46.10;;;18.33;;
59828;SDS011;45708;51.848;107.620;2023-04-08T22:49:07;39.72;;;17.15;;
59828;SDS011;45708;51.848;107.620;2023-04-08T22:54:08;39.65;;;16.55;;
59828;SDS011;45708;51.848;107.620;2023-04-08T22:59:09;41.15;;;18.70;;
59828;SDS011;45708;51.848;107.620;2023-04-08T23:04:10;46.60;;;18.92;;
59828;SDS011;45708;51.848;107.620;2023-04-08T23:09:11;44.22;;;17.88;;
59828;SDS011;45708;51.848;107.620;2023-04-08T23:14:11;34.90;;;15.18;;
59828;SDS011;45708;51.848;107.620;2023-04-08T23:19:12;31.48;;;13.18;;
59828;SDS011;45708;51.848;107.620;2023-04-08T23:24:13;33.30;;;16.90;;
59828;SDS011;45708;51.848;107.620;2023-04-08T23:29:14;37.70;;;16.92;;
59828;SDS011;45708;51.848;107.620;2023-04-08T23:34:15;49.78;;;21.77;;
59828;SDS011;45708;51.848;107.620;2023-04-08T23:39:15;48.00;;;23.23;;
59828;SDS011;45708;51.848;107.620;2023-04-08T23:44:16;45.70;;;20.63;;
59828;SDS011;45708;51.848;107.620;2023-04-08T23:49:17;44.17;;;19.30;;
59828;SDS011;45708;51.848;107.620;2023-04-08T23:54:18;47.58;;;20.90;;
59828;SDS011;45708;51.848;107.620;2023-04-08T23:59:19;32.38;;;15.85;;
